createdAt,value
2018-07-13T00:02:24.470Z,13.90
2018-07-13T00:05:00.148Z,13.80
2018-07-13T00:07:35.662Z,13.70
2018-07-13T00:10:10.940Z,13.60
2018-07-13T00:12:47.153Z,13.60
2018-07-13T00:15:22.282Z,13.70
2018-07-13T00:17:57.687Z,13.60
2018-07-13T00:20:33.134Z,13.70
2018-07-13T00:23:08.415Z,13.70
2018-07-13T00:25:43.556Z,13.80
2018-07-13T00:28:19.373Z,13.80
2018-07-13T00:30:54.849Z,13.70
2018-07-13T00:33:31.252Z,13.60
2018-07-13T00:36:07.384Z,13.50
2018-07-13T00:38:42.605Z,13.50
2018-07-13T00:41:18.362Z,13.50
2018-07-13T00:43:54.273Z,13.50
2018-07-13T00:46:29.659Z,13.30
2018-07-13T00:49:05.108Z,13.20
2018-07-13T00:51:40.228Z,13.10
2018-07-13T00:54:15.950Z,12.90
2018-07-13T00:56:51.543Z,13.00
2018-07-13T00:59:27.459Z,13.10
2018-07-13T01:02:03.020Z,13.10
2018-07-13T01:04:37.957Z,13.10
2018-07-13T01:07:13.394Z,13.20
2018-07-13T01:09:49.295Z,13.10
2018-07-13T01:12:24.698Z,13.10
2018-07-13T01:17:35.386Z,13.10
2018-07-13T01:20:09.987Z,13.10
2018-07-13T01:22:45.156Z,13.00
2018-07-13T01:25:20.863Z,13.00
2018-07-13T01:27:56.428Z,13.00
2018-07-13T01:30:32.256Z,13.00
2018-07-13T01:33:07.629Z,12.90
2018-07-13T01:35:43.367Z,12.90
2018-07-13T01:38:19.856Z,12.80
2018-07-13T01:40:55.961Z,12.70
2018-07-13T01:43:31.934Z,12.70
2018-07-13T01:46:07.730Z,12.70
2018-07-13T01:48:43.359Z,12.70
2018-07-13T01:51:19.735Z,12.70
2018-07-13T01:53:54.965Z,12.70
2018-07-13T01:56:30.529Z,12.70
2018-07-13T01:59:06.044Z,12.60
2018-07-13T02:04:16.046Z,12.70
2018-07-13T02:06:51.546Z,12.60
2018-07-13T02:09:27.129Z,12.70
2018-07-13T02:12:02.408Z,12.60
2018-07-13T02:14:38.560Z,12.50
2018-07-13T02:17:13.695Z,12.50
2018-07-13T02:19:48.936Z,12.40
2018-07-13T02:22:23.991Z,12.40
2018-07-13T02:25:00.132Z,12.30
2018-07-13T02:27:35.691Z,12.30
2018-07-13T02:30:11.676Z,12.20
2018-07-13T02:32:47.646Z,12.20
2018-07-13T02:37:57.822Z,12.10
2018-07-13T02:40:33.763Z,12.00
2018-07-13T02:43:11.540Z,12.00
2018-07-13T02:45:47.214Z,12.00
2018-07-13T02:48:22.744Z,12.00
2018-07-13T02:50:58.182Z,12.00
2018-07-13T02:58:43.806Z,12.00
2018-07-13T03:01:18.919Z,11.90
2018-07-13T03:03:54.135Z,11.80
2018-07-13T03:06:30.036Z,11.90
2018-07-13T03:09:07.587Z,11.90
2018-07-13T03:11:43.387Z,11.90
2018-07-13T03:14:18.510Z,11.80
2018-07-13T03:16:54.461Z,11.60
2018-07-13T03:19:29.815Z,11.50
2018-07-13T03:22:04.076Z,11.50
2018-07-13T03:24:39.537Z,11.50
2018-07-13T03:27:15.403Z,11.50
2018-07-13T03:32:26.289Z,11.80
2018-07-13T03:37:36.459Z,11.90
2018-07-13T03:40:12.097Z,11.90
2018-07-13T03:42:48.293Z,11.80
2018-07-13T03:45:24.183Z,11.70
2018-07-13T03:47:59.988Z,11.80
2018-07-13T03:50:36.459Z,11.80
2018-07-13T03:53:12.923Z,11.70
2018-07-13T03:55:48.565Z,11.70
2018-07-13T03:58:24.626Z,11.70
2018-07-13T04:00:59.993Z,11.70
2018-07-13T04:03:37.007Z,11.70
2018-07-13T04:06:12.155Z,11.70
2018-07-13T04:08:48.378Z,11.60
2018-07-13T04:11:24.514Z,11.50
2018-07-13T04:13:59.936Z,11.50
2018-07-13T04:16:36.825Z,11.60
2018-07-13T04:19:12.357Z,11.70
2018-07-13T04:21:47.778Z,11.60
2018-07-13T04:24:23.330Z,11.60
2018-07-13T04:26:58.313Z,11.70
2018-07-13T04:29:33.873Z,11.60
2018-07-13T04:32:09.960Z,11.80
2018-07-13T04:34:45.255Z,11.90
2018-07-13T04:37:20.750Z,11.90
2018-07-13T04:39:57.035Z,12.00
2018-07-13T04:42:32.330Z,12.00
2018-07-13T04:45:09.268Z,12.10
2018-07-13T04:47:44.303Z,12.20
2018-07-13T04:50:19.492Z,12.20
2018-07-13T04:52:55.392Z,12.20
2018-07-13T04:55:31.162Z,12.20
2018-07-13T05:00:42.126Z,12.20
2018-07-13T05:03:17.665Z,12.20
2018-07-13T05:05:52.693Z,12.30
2018-07-13T05:08:27.922Z,12.30
2018-07-13T05:11:03.263Z,12.40
2018-07-13T05:13:41.161Z,12.50
2018-07-13T05:16:17.282Z,12.50
2018-07-13T05:18:53.075Z,12.60
2018-07-13T05:21:28.499Z,12.60
2018-07-13T05:24:03.769Z,12.60
2018-07-13T05:26:39.271Z,12.70
2018-07-13T05:29:15.350Z,12.80
2018-07-13T05:31:51.132Z,12.90
2018-07-13T05:34:27.243Z,13.00
2018-07-13T05:37:03.519Z,13.00
2018-07-13T05:44:48.854Z,13.20
2018-07-13T05:47:24.266Z,13.30
2018-07-13T05:49:59.563Z,13.50
2018-07-13T05:52:34.740Z,13.60
2018-07-13T05:55:09.890Z,13.60
2018-07-13T05:57:45.053Z,13.80
2018-07-13T06:00:20.547Z,13.90
2018-07-13T06:05:31.396Z,14.00
2018-07-13T06:08:06.807Z,14.10
2018-07-13T06:10:42.252Z,14.10
2018-07-13T06:13:18.371Z,14.20
2018-07-13T06:15:54.171Z,14.20
2018-07-13T06:18:29.599Z,14.30
2018-07-13T06:21:05.119Z,14.50
2018-07-13T06:23:41.471Z,14.60
2018-07-13T06:26:16.961Z,14.80
2018-07-13T06:28:52.689Z,14.80
2018-07-13T06:31:28.681Z,14.90
2018-07-13T06:34:04.615Z,15.20
2018-07-13T06:36:40.037Z,15.20
2018-07-13T06:39:16.209Z,15.40
2018-07-13T06:41:51.672Z,15.40
2018-07-13T06:44:26.782Z,15.60
2018-07-13T06:49:36.743Z,15.80
2018-07-13T06:52:12.485Z,16.00
2018-07-13T06:54:48.376Z,16.10
2018-07-13T06:57:34.630Z,16.30
2018-07-13T07:01:13.566Z,16.50
2018-07-13T07:04:21.076Z,16.70
2018-07-13T07:06:57.412Z,16.70
2018-07-13T07:13:13.838Z,17.00
2018-07-13T07:15:49.615Z,17.10
2018-07-13T07:18:25.475Z,17.20
2018-07-13T07:21:01.283Z,17.30
2018-07-13T07:23:37.472Z,17.40
2018-07-13T07:26:12.510Z,17.50
2018-07-13T07:28:49.094Z,17.60
2018-07-13T07:31:25.016Z,17.70
2018-07-13T07:34:00.067Z,17.80
2018-07-13T07:36:37.991Z,17.90
2018-07-13T07:39:13.728Z,18.10
2018-07-13T07:41:50.196Z,18.20
2018-07-13T07:44:25.337Z,18.40
2018-07-13T07:47:01.223Z,18.50
2018-07-13T07:49:36.690Z,18.60
2018-07-13T07:52:11.672Z,18.80
2018-07-13T07:54:48.636Z,19.00
2018-07-13T07:57:25.632Z,19.20
2018-07-13T08:00:00.970Z,19.30
2018-07-13T08:02:37.422Z,19.40
2018-07-13T08:05:13.094Z,19.40
2018-07-13T08:07:48.485Z,19.50
2018-07-13T08:10:23.838Z,19.60
2018-07-13T08:13:00.015Z,19.80
2018-07-13T08:15:35.485Z,19.80
2018-07-13T08:18:10.485Z,20.10
2018-07-13T08:20:47.681Z,20.20
2018-07-13T08:23:22.726Z,20.50
2018-07-13T08:25:58.316Z,20.60
2018-07-13T08:28:36.366Z,20.80
2018-07-13T08:31:11.851Z,20.90
2018-07-13T08:36:23.305Z,21.30
2018-07-13T08:38:59.560Z,21.60
2018-07-13T08:41:34.682Z,21.60
2018-07-13T08:44:10.342Z,22.10
2018-07-13T08:46:46.612Z,21.90
2018-07-13T08:49:22.342Z,22.20
2018-07-13T08:51:58.844Z,22.30
2018-07-13T08:54:34.466Z,22.80
2018-07-13T08:57:10.110Z,23.60
2018-07-13T08:59:45.359Z,24.20
2018-07-13T09:02:20.969Z,24.70
2018-07-13T09:04:57.052Z,24.90
2018-07-13T09:07:33.896Z,24.40
2018-07-13T09:10:11.528Z,24.00
2018-07-13T09:12:47.405Z,24.60
2018-07-13T09:15:22.645Z,25.20
2018-07-13T09:17:57.945Z,26.00
2018-07-13T09:20:33.613Z,26.60
2018-07-13T09:23:09.724Z,27.00
2018-07-13T09:25:46.040Z,26.40
2018-07-13T09:28:23.637Z,26.60
2018-07-13T09:30:58.973Z,26.10
2018-07-13T09:33:34.735Z,26.50
2018-07-13T09:36:10.841Z,26.90
2018-07-13T09:38:48.452Z,27.20
2018-07-13T09:41:24.342Z,27.40
2018-07-13T09:43:59.511Z,27.20
2018-07-13T09:46:35.440Z,26.80
2018-07-13T09:49:11.567Z,25.60
2018-07-13T09:51:47.915Z,25.10
2018-07-13T09:54:24.130Z,25.70
2018-07-13T09:57:00.377Z,26.70
2018-07-13T09:59:37.019Z,26.70
2018-07-13T10:02:12.269Z,27.20
2018-07-13T10:04:48.830Z,27.10
2018-07-13T10:07:24.897Z,26.50
2018-07-13T10:10:00.431Z,26.00
2018-07-13T10:12:37.209Z,26.10
2018-07-13T10:15:13.176Z,26.20
2018-07-13T10:17:50.155Z,26.40
2018-07-13T10:20:27.530Z,27.40
2018-07-13T10:23:03.712Z,28.40
2018-07-13T10:25:39.313Z,28.80
2018-07-13T10:28:15.093Z,28.60
2018-07-13T10:30:51.151Z,29.00
2018-07-13T10:33:29.112Z,29.00
2018-07-13T10:36:06.577Z,29.40
2018-07-13T10:38:41.990Z,27.30
2018-07-13T10:41:18.040Z,27.90
2018-07-13T10:43:54.819Z,28.90
2018-07-13T10:46:30.483Z,29.20
2018-07-13T10:49:06.584Z,28.50
2018-07-13T10:51:43.006Z,29.10
2018-07-13T10:56:53.414Z,29.60
2018-07-13T10:59:28.881Z,29.30
2018-07-13T11:02:04.405Z,29.60
2018-07-13T11:07:14.913Z,29.90
2018-07-13T11:09:50.062Z,29.40
2018-07-13T11:12:25.008Z,28.00
2018-07-13T11:15:00.428Z,27.50
2018-07-13T11:17:36.292Z,27.70
2018-07-13T11:20:11.622Z,28.60
2018-07-13T11:22:47.266Z,29.70
2018-07-13T11:25:23.023Z,30.30
2018-07-13T11:27:57.951Z,30.40
2018-07-13T11:30:33.486Z,30.90
2018-07-13T11:33:09.767Z,31.20
2018-07-13T11:35:45.054Z,31.30
2018-07-13T11:38:20.654Z,31.70
2018-07-13T11:40:55.277Z,31.80
2018-07-13T11:43:30.752Z,32.00
2018-07-13T11:46:06.187Z,31.60
2018-07-13T11:48:41.420Z,31.60
2018-07-13T11:51:17.143Z,31.60
2018-07-13T11:53:52.705Z,31.60
2018-07-13T11:56:28.180Z,31.70
2018-07-13T12:04:15.187Z,31.90
2018-07-13T12:06:50.613Z,31.80
2018-07-13T12:09:26.969Z,31.90
2018-07-13T12:12:02.575Z,31.60
2018-07-13T12:14:37.627Z,30.70
2018-07-13T12:17:13.020Z,31.20
2018-07-13T12:19:48.214Z,31.90
2018-07-13T12:22:23.579Z,32.60
2018-07-13T12:24:58.162Z,32.80
2018-07-13T12:27:33.563Z,32.80
2018-07-13T12:30:09.610Z,33.10
2018-07-13T12:32:44.947Z,33.00
2018-07-13T12:35:20.398Z,33.30
2018-07-13T12:37:56.427Z,33.60
2018-07-13T12:40:32.307Z,33.90
2018-07-13T12:43:07.732Z,33.00
2018-07-13T12:45:42.760Z,32.60
2018-07-13T12:48:18.019Z,33.40
2018-07-13T12:50:53.470Z,34.10
2018-07-13T12:56:04.015Z,34.30
2018-07-13T12:58:40.090Z,34.70
2018-07-13T13:01:15.621Z,35.10
2018-07-13T13:03:50.680Z,35.60
2018-07-13T13:06:26.205Z,35.10
2018-07-13T13:09:02.000Z,35.90
2018-07-13T13:11:37.090Z,35.90
2018-07-13T13:14:12.238Z,36.20
2018-07-13T13:16:47.321Z,35.90
2018-07-13T13:19:22.383Z,35.90
2018-07-13T13:21:57.976Z,35.30
2018-07-13T13:24:32.569Z,34.20
2018-07-13T13:27:07.339Z,34.80
2018-07-13T13:29:42.562Z,34.70
2018-07-13T13:32:17.710Z,34.70
2018-07-13T13:34:52.991Z,35.40
2018-07-13T13:40:02.450Z,35.80
2018-07-13T13:42:37.051Z,36.70
2018-07-13T13:45:11.898Z,36.40
2018-07-13T13:47:46.970Z,34.80
2018-07-13T13:52:56.602Z,34.80
2018-07-13T13:55:31.215Z,32.80
2018-07-13T13:58:06.669Z,34.20
2018-07-13T14:00:41.963Z,35.60
2018-07-13T14:03:17.315Z,36.30
2018-07-13T14:05:52.698Z,35.60
2018-07-13T14:08:28.092Z,36.30
2018-07-13T14:11:04.010Z,37.00
2018-07-13T14:13:39.923Z,36.30
2018-07-13T14:18:50.501Z,36.90
2018-07-13T14:21:26.324Z,37.00
2018-07-13T14:24:02.187Z,37.00
2018-07-13T14:26:39.481Z,36.80
2018-07-13T14:29:16.869Z,36.70
2018-07-13T14:31:51.606Z,36.50
2018-07-13T14:34:27.174Z,36.50
2018-07-13T14:37:02.580Z,36.00
2018-07-13T14:42:17.019Z,36.30
2018-07-13T14:44:53.227Z,36.50
2018-07-13T14:47:31.732Z,35.80
2018-07-13T14:50:09.119Z,35.90
2018-07-13T14:52:44.762Z,36.30
2018-07-13T14:55:20.759Z,36.40
2018-07-13T14:57:58.406Z,36.50
2018-07-13T15:00:33.559Z,35.90
2018-07-13T15:03:11.409Z,35.00
2018-07-13T15:05:47.053Z,35.80
2018-07-13T15:08:22.916Z,36.30
2018-07-13T15:10:57.936Z,36.60
2018-07-13T15:13:33.175Z,36.40
2018-07-13T15:16:08.613Z,35.80
2018-07-13T15:18:44.882Z,35.50
2018-07-13T15:21:22.402Z,35.00
2018-07-13T15:24:00.726Z,34.30
2018-07-13T15:26:38.525Z,34.10
2018-07-13T15:29:14.891Z,34.20
2018-07-13T15:31:49.805Z,34.30
2018-07-13T15:34:26.232Z,34.00
2018-07-13T15:37:01.873Z,34.40
2018-07-13T15:39:39.272Z,33.80
2018-07-13T15:42:16.201Z,34.40
2018-07-13T15:44:51.742Z,34.30
2018-07-13T15:47:27.538Z,33.80
2018-07-13T15:50:03.134Z,33.60
2018-07-13T15:52:40.534Z,33.30
2018-07-13T15:55:16.459Z,33.40
2018-07-13T16:00:28.380Z,33.50
2018-07-13T16:03:04.513Z,33.50
2018-07-13T16:05:40.247Z,33.40
2018-07-13T16:08:16.245Z,33.20
2018-07-13T16:10:51.872Z,33.00
2018-07-13T16:13:28.259Z,32.60
2018-07-13T16:18:27.474Z,32.30
2018-07-13T16:21:03.427Z,32.10
2018-07-13T16:23:39.682Z,32.00
2018-07-13T16:26:15.146Z,31.80
2018-07-13T16:28:50.538Z,31.60
2018-07-13T16:31:26.096Z,31.40
2018-07-13T16:34:01.693Z,31.30
2018-07-13T16:36:38.191Z,31.20
2018-07-13T16:39:14.289Z,31.20
2018-07-13T16:41:50.248Z,31.20
2018-07-13T16:44:27.532Z,31.10
2018-07-13T16:47:02.863Z,31.10
2018-07-13T16:49:40.258Z,31.00
2018-07-13T16:52:15.781Z,31.10
2018-07-13T16:54:51.122Z,31.10
2018-07-13T16:57:26.959Z,30.90
2018-07-13T17:00:02.536Z,30.30
2018-07-13T17:02:38.371Z,30.30
2018-07-13T17:07:48.892Z,30.50
2018-07-13T17:10:26.036Z,30.40
2018-07-13T17:13:01.671Z,30.40
2018-07-13T17:15:40.896Z,30.40
2018-07-13T17:18:16.855Z,30.40
2018-07-13T17:20:52.031Z,30.40
2018-07-13T17:23:27.919Z,30.50
2018-07-13T17:26:03.939Z,30.60
2018-07-13T17:28:39.181Z,30.50
2018-07-13T17:31:15.390Z,30.40
2018-07-13T17:33:50.687Z,30.30
2018-07-13T17:36:29.348Z,30.20
2018-07-13T17:39:05.417Z,29.90
2018-07-13T17:41:41.211Z,29.80
2018-07-13T17:44:19.313Z,29.70
2018-07-13T17:46:56.071Z,29.60
2018-07-13T17:49:30.810Z,29.50
2018-07-13T17:52:05.838Z,29.50
2018-07-13T17:54:41.208Z,29.40
2018-07-13T17:57:16.227Z,29.30
2018-07-13T17:59:51.254Z,29.20
2018-07-13T18:02:26.600Z,29.10
2018-07-13T18:05:03.582Z,29.00
2018-07-13T18:07:39.320Z,28.90
2018-07-13T18:10:14.709Z,28.70
2018-07-13T18:12:50.630Z,28.50
2018-07-13T18:15:25.856Z,28.20
2018-07-13T18:18:00.908Z,28.10
2018-07-13T18:23:13.997Z,27.60
2018-07-13T18:25:49.663Z,27.40
2018-07-13T18:28:24.916Z,27.20
2018-07-13T18:31:02.068Z,27.00
2018-07-13T18:33:39.159Z,26.50
2018-07-13T18:36:15.422Z,26.20
2018-07-13T18:38:50.696Z,25.80
2018-07-13T18:41:26.078Z,25.60
2018-07-13T18:44:03.898Z,25.60
2018-07-13T18:46:40.844Z,25.40
2018-07-13T18:51:54.543Z,25.20
2018-07-13T18:54:30.191Z,25.10
2018-07-13T18:57:05.536Z,25.10
2018-07-13T19:02:16.292Z,24.80
2018-07-13T19:04:51.087Z,24.80
2018-07-13T19:07:28.655Z,24.70
2018-07-13T19:10:03.876Z,24.50
2018-07-13T19:12:40.179Z,24.40
2018-07-13T19:15:15.916Z,24.20
2018-07-13T19:17:52.028Z,23.80
2018-07-13T19:20:29.717Z,23.60
2018-07-13T19:23:05.607Z,23.50
2018-07-13T19:28:18.614Z,23.20
2018-07-13T19:30:55.144Z,23.10
2018-07-13T19:33:29.909Z,23.00
2018-07-13T19:36:04.867Z,22.90
2018-07-13T19:38:39.332Z,22.90
2018-07-13T19:41:14.434Z,22.70
2018-07-13T19:43:55.973Z,22.50
2018-07-13T19:46:30.721Z,22.40
2018-07-13T19:49:06.057Z,22.40
2018-07-13T19:51:41.081Z,22.30
2018-07-13T19:54:16.701Z,22.30
2018-07-13T19:56:52.047Z,22.30
2018-07-13T19:59:27.443Z,22.40
2018-07-13T20:02:03.579Z,22.30
2018-07-13T20:04:39.137Z,22.20
2018-07-13T20:07:14.213Z,22.00
2018-07-13T20:09:49.497Z,21.90
2018-07-13T20:12:25.657Z,21.80
2018-07-13T20:15:01.202Z,21.80
2018-07-13T20:17:39.006Z,21.70
2018-07-13T20:20:14.547Z,21.50
2018-07-13T20:22:49.575Z,21.30
2018-07-13T20:25:26.969Z,21.30
2018-07-13T20:28:02.532Z,21.20
2018-07-13T20:30:39.187Z,21.10
2018-07-13T20:33:15.364Z,21.10
2018-07-13T20:35:50.683Z,20.90
2018-07-13T20:38:28.174Z,20.90
2018-07-13T20:43:40.298Z,21.20
2018-07-13T20:46:17.266Z,21.20
2018-07-13T20:48:52.427Z,21.20
2018-07-13T20:51:28.822Z,21.10
2018-07-13T20:54:05.374Z,21.10
2018-07-13T20:56:41.203Z,21.00
2018-07-13T20:59:17.208Z,20.80
2018-07-13T21:01:52.398Z,20.80
2018-07-13T21:04:29.770Z,20.90
2018-07-13T21:07:06.462Z,21.00
2018-07-13T21:09:41.602Z,20.90
2018-07-13T21:12:18.659Z,20.90
2018-07-13T21:14:54.521Z,20.90
2018-07-13T21:17:31.398Z,20.60
2018-07-13T21:20:08.239Z,20.40
2018-07-13T21:22:43.601Z,20.20
2018-07-13T21:25:18.874Z,20.30
2018-07-13T21:27:53.458Z,20.20
2018-07-13T21:30:28.175Z,20.20
2018-07-13T21:33:02.348Z,20.10
2018-07-13T21:35:36.799Z,20.00
2018-07-13T21:40:52.426Z,19.90
2018-07-13T21:46:00.926Z,19.90
2018-07-13T21:51:10.436Z,19.70
2018-07-13T21:53:45.304Z,19.60
2018-07-13T21:56:19.966Z,19.50
2018-07-13T21:58:55.113Z,19.40
2018-07-13T22:01:29.761Z,19.30
2018-07-13T22:06:38.452Z,19.20
2018-07-13T22:09:12.784Z,19.00
2018-07-13T22:11:47.085Z,18.90
2018-07-13T22:16:55.825Z,18.60
2018-07-13T22:19:30.298Z,18.60
2018-07-13T22:24:38.622Z,18.40
2018-07-13T22:27:13.091Z,18.30
2018-07-13T22:29:47.913Z,18.20
2018-07-13T22:32:22.216Z,18.20
2018-07-13T22:34:57.752Z,18.10
2018-07-13T22:37:32.601Z,18.20
2018-07-13T22:40:07.171Z,18.10
2018-07-13T22:42:41.844Z,18.10
2018-07-13T22:45:16.687Z,18.10
2018-07-13T22:47:51.127Z,18.10
2018-07-13T22:50:27.265Z,18.10
2018-07-13T22:55:36.736Z,18.00
2018-07-13T22:58:11.351Z,17.90
2018-07-13T23:03:20.465Z,17.80
2018-07-13T23:08:29.628Z,17.90
2018-07-13T23:11:04.200Z,17.80
2018-07-13T23:13:38.386Z,17.80
2018-07-13T23:16:13.118Z,17.60
2018-07-13T23:18:48.030Z,17.40
2018-07-13T23:21:23.251Z,17.30
2018-07-13T23:23:57.928Z,17.30
2018-07-13T23:29:11.769Z,17.30
2018-07-13T23:31:46.710Z,17.10
2018-07-13T23:36:55.182Z,16.80
2018-07-13T23:39:29.515Z,16.80
2018-07-13T23:44:38.786Z,17.10
2018-07-13T23:47:14.349Z,17.10
2018-07-13T23:49:49.082Z,17.10
2018-07-13T23:52:23.998Z,17.00
2018-07-13T23:54:58.558Z,16.90
2018-07-13T23:57:33.053Z,16.80
